sensor_id;sensor_type;location;lat;lon;timestamp;P1;durP1;ratioP1;P2;durP2;ratioP2
63201;SDS011;49296;48.188;11.566;2023-05-10T00:00:39;2.05;;;1.02;;
63201;SDS011;49296;48.188;11.566;2023-05-10T00:03:05;2.80;;;1.10;;
63201;SDS011;49296;48.188;11.566;2023-05-10T00:05:32;3.08;;;1.20;;
63201;SDS011;49296;48.188;11.566;2023-05-10T00:07:59;2.35;;;1.10;;
63201;SDS011;49296;48.188;11.566;2023-05-10T00:10:25;3.85;;;1.35;;
63201;SDS011;49296;48.188;11.566;2023-05-10T00:12:52;3.88;;;1.40;;
63201;SDS011;49296;48.188;11.566;2023-05-10T00:15:22;5.15;;;1.48;;
63201;SDS011;49296;48.188;11.566;2023-05-10T00:17:50;2.17;;;1.13;;
63201;SDS011;49296;48.188;11.566;2023-05-10T00:20:16;1.95;;;1.15;;
63201;SDS011;49296;48.188;11.566;2023-05-10T00:22:43;2.25;;;1.20;;
63201;SDS011;49296;48.188;11.566;2023-05-10T00:25:09;2.25;;;1.13;;
63201;SDS011;49296;48.188;11.566;2023-05-10T00:27:36;2.20;;;1.40;;
63201;SDS011;49296;48.188;11.566;2023-05-10T00:30:04;2.42;;;1.20;;
63201;SDS011;49296;48.188;11.566;2023-05-10T00:32:32;2.15;;;1.10;;
63201;SDS011;49296;48.188;11.566;2023-05-10T00:35:03;2.88;;;1.65;;
63201;SDS011;49296;48.188;11.566;2023-05-10T00:37:30;2.88;;;1.38;;
63201;SDS011;49296;48.188;11.566;2023-05-10T00:39:59;2.47;;;1.70;;
63201;SDS011;49296;48.188;11.566;2023-05-10T00:42:26;2.08;;;1.10;;
63201;SDS011;49296;48.188;11.566;2023-05-10T00:44:53;1.65;;;1.00;;
63201;SDS011;49296;48.188;11.566;2023-05-10T00:47:19;1.55;;;0.90;;
63201;SDS011;49296;48.188;11.566;2023-05-10T00:49:46;1.58;;;1.00;;
63201;SDS011;49296;48.188;11.566;2023-05-10T00:52:15;1.73;;;0.90;;
63201;SDS011;49296;48.188;11.566;2023-05-10T00:54:42;2.33;;;0.93;;
63201;SDS011;49296;48.188;11.566;2023-05-10T00:57:08;1.83;;;0.85;;
63201;SDS011;49296;48.188;11.566;2023-05-10T00:59:35;1.67;;;0.80;;
63201;SDS011;49296;48.188;11.566;2023-05-10T01:02:02;1.08;;;0.80;;
63201;SDS011;49296;48.188;11.566;2023-05-10T01:04:29;1.92;;;0.85;;
63201;SDS011;49296;48.188;11.566;2023-05-10T01:06:56;1.25;;;0.73;;
63201;SDS011;49296;48.188;11.566;2023-05-10T01:09:24;1.48;;;0.90;;
63201;SDS011;49296;48.188;11.566;2023-05-10T01:15:12;1.33;;;0.70;;
63201;SDS011;49296;48.188;11.566;2023-05-10T01:17:40;2.85;;;0.90;;
63201;SDS011;49296;48.188;11.566;2023-05-10T01:20:10;1.90;;;0.90;;
63201;SDS011;49296;48.188;11.566;2023-05-10T01:22:50;2.67;;;1.02;;
63201;SDS011;49296;48.188;11.566;2023-05-10T01:25:34;1.55;;;0.90;;
63201;SDS011;49296;48.188;11.566;2023-05-10T01:31:15;1.58;;;0.70;;
63201;SDS011;49296;48.188;11.566;2023-05-10T01:33:51;1.40;;;0.70;;
63201;SDS011;49296;48.188;11.566;2023-05-10T01:36:22;1.42;;;0.80;;
63201;SDS011;49296;48.188;11.566;2023-05-10T01:38:53;1.42;;;0.68;;
63201;SDS011;49296;48.188;11.566;2023-05-10T01:41:27;2.25;;;0.80;;
63201;SDS011;49296;48.188;11.566;2023-05-10T01:44:01;2.53;;;0.80;;
63201;SDS011;49296;48.188;11.566;2023-05-10T01:46:32;1.42;;;0.80;;
63201;SDS011;49296;48.188;11.566;2023-05-10T01:49:03;1.45;;;0.70;;
63201;SDS011;49296;48.188;11.566;2023-05-10T01:51:35;1.30;;;0.60;;
63201;SDS011;49296;48.188;11.566;2023-05-10T01:54:05;1.55;;;0.70;;
63201;SDS011;49296;48.188;11.566;2023-05-10T01:56:33;1.55;;;1.17;;
63201;SDS011;49296;48.188;11.566;2023-05-10T01:59:02;1.77;;;0.75;;
63201;SDS011;49296;48.188;11.566;2023-05-10T02:01:34;1.98;;;1.20;;
63201;SDS011;49296;48.188;11.566;2023-05-10T02:04:04;1.10;;;0.70;;
63201;SDS011;49296;48.188;11.566;2023-05-10T02:06:33;2.20;;;0.77;;
63201;SDS011;49296;48.188;11.566;2023-05-10T02:09:01;1.25;;;0.70;;
63201;SDS011;49296;48.188;11.566;2023-05-10T02:11:29;1.67;;;0.60;;
63201;SDS011;49296;48.188;11.566;2023-05-10T02:13:57;1.35;;;0.63;;
63201;SDS011;49296;48.188;11.566;2023-05-10T02:16:24;2.40;;;0.70;;
63201;SDS011;49296;48.188;11.566;2023-05-10T02:18:55;2.13;;;0.80;;
63201;SDS011;49296;48.188;11.566;2023-05-10T02:21:26;1.67;;;0.80;;
63201;SDS011;49296;48.188;11.566;2023-05-10T02:23:55;2.15;;;0.90;;
63201;SDS011;49296;48.188;11.566;2023-05-10T02:26:23;2.17;;;0.70;;
63201;SDS011;49296;48.188;11.566;2023-05-10T02:28:51;2.10;;;0.80;;
63201;SDS011;49296;48.188;11.566;2023-05-10T02:31:19;3.38;;;1.10;;
63201;SDS011;49296;48.188;11.566;2023-05-10T02:33:47;2.55;;;0.88;;
63201;SDS011;49296;48.188;11.566;2023-05-10T02:36:15;1.70;;;0.80;;
63201;SDS011;49296;48.188;11.566;2023-05-10T02:38:44;1.45;;;0.82;;
63201;SDS011;49296;48.188;11.566;2023-05-10T02:41:12;1.40;;;0.73;;
63201;SDS011;49296;48.188;11.566;2023-05-10T02:43:40;1.50;;;0.80;;
63201;SDS011;49296;48.188;11.566;2023-05-10T02:46:08;1.42;;;0.90;;
63201;SDS011;49296;48.188;11.566;2023-05-10T02:48:34;1.85;;;0.70;;
63201;SDS011;49296;48.188;11.566;2023-05-10T02:51:03;1.27;;;0.70;;
63201;SDS011;49296;48.188;11.566;2023-05-10T02:53:33;2.20;;;0.70;;
63201;SDS011;49296;48.188;11.566;2023-05-10T02:56:04;1.35;;;0.60;;
63201;SDS011;49296;48.188;11.566;2023-05-10T02:58:36;1.13;;;0.70;;
63201;SDS011;49296;48.188;11.566;2023-05-10T03:01:02;1.73;;;0.60;;
63201;SDS011;49296;48.188;11.566;2023-05-10T03:03:29;0.90;;;0.60;;
63201;SDS011;49296;48.188;11.566;2023-05-10T03:05:57;0.85;;;0.52;;
63201;SDS011;49296;48.188;11.566;2023-05-10T03:08:23;2.10;;;0.70;;
63201;SDS011;49296;48.188;11.566;2023-05-10T03:10:54;1.40;;;0.65;;
63201;SDS011;49296;48.188;11.566;2023-05-10T03:13:32;1.30;;;0.70;;
63201;SDS011;49296;48.188;11.566;2023-05-10T03:16:06;1.10;;;0.70;;
63201;SDS011;49296;48.188;11.566;2023-05-10T03:18:37;0.75;;;0.50;;
63201;SDS011;49296;48.188;11.566;2023-05-10T03:21:09;0.90;;;0.70;;
63201;SDS011;49296;48.188;11.566;2023-05-10T03:23:40;1.55;;;0.75;;
63201;SDS011;49296;48.188;11.566;2023-05-10T03:26:09;1.35;;;0.68;;
63201;SDS011;49296;48.188;11.566;2023-05-10T03:28:39;2.67;;;0.70;;
63201;SDS011;49296;48.188;11.566;2023-05-10T03:31:07;1.42;;;0.52;;
63201;SDS011;49296;48.188;11.566;2023-05-10T03:33:35;1.75;;;0.70;;
63201;SDS011;49296;48.188;11.566;2023-05-10T03:36:01;0.80;;;0.68;;
63201;SDS011;49296;48.188;11.566;2023-05-10T03:38:28;0.93;;;0.60;;
63201;SDS011;49296;48.188;11.566;2023-05-10T03:40:54;2.35;;;0.70;;
63201;SDS011;49296;48.188;11.566;2023-05-10T03:43:21;1.08;;;0.60;;
63201;SDS011;49296;48.188;11.566;2023-05-10T03:45:49;1.00;;;0.60;;
63201;SDS011;49296;48.188;11.566;2023-05-10T03:48:16;0.70;;;0.50;;
63201;SDS011;49296;48.188;11.566;2023-05-10T03:50:42;1.92;;;0.98;;
63201;SDS011;49296;48.188;11.566;2023-05-10T03:53:09;1.90;;;0.55;;
63201;SDS011;49296;48.188;11.566;2023-05-10T03:55:35;1.88;;;0.70;;
63201;SDS011;49296;48.188;11.566;2023-05-10T03:58:02;1.40;;;0.70;;
63201;SDS011;49296;48.188;11.566;2023-05-10T04:00:28;1.10;;;0.63;;
63201;SDS011;49296;48.188;11.566;2023-05-10T04:02:56;1.50;;;0.70;;
63201;SDS011;49296;48.188;11.566;2023-05-10T04:05:23;1.27;;;0.75;;
63201;SDS011;49296;48.188;11.566;2023-05-10T04:07:50;0.77;;;0.50;;
63201;SDS011;49296;48.188;11.566;2023-05-10T04:10:16;1.67;;;0.70;;
63201;SDS011;49296;48.188;11.566;2023-05-10T04:12:43;1.35;;;0.70;;
63201;SDS011;49296;48.188;11.566;2023-05-10T04:15:10;2.25;;;0.80;;
63201;SDS011;49296;48.188;11.566;2023-05-10T04:17:36;1.23;;;0.60;;
63201;SDS011;49296;48.188;11.566;2023-05-10T04:20:05;1.27;;;0.63;;
63201;SDS011;49296;48.188;11.566;2023-05-10T04:22:33;1.17;;;0.70;;
63201;SDS011;49296;48.188;11.566;2023-05-10T04:24:59;0.70;;;0.50;;
63201;SDS011;49296;48.188;11.566;2023-05-10T04:27:26;1.65;;;0.70;;
63201;SDS011;49296;48.188;11.566;2023-05-10T04:29:53;1.38;;;0.60;;
63201;SDS011;49296;48.188;11.566;2023-05-10T04:32:19;1.23;;;0.60;;
63201;SDS011;49296;48.188;11.566;2023-05-10T04:34:46;1.45;;;0.70;;
63201;SDS011;49296;48.188;11.566;2023-05-10T04:37:14;1.45;;;0.60;;
63201;SDS011;49296;48.188;11.566;2023-05-10T04:39:41;1.67;;;0.77;;
63201;SDS011;49296;48.188;11.566;2023-05-10T04:42:07;1.05;;;0.60;;
63201;SDS011;49296;48.188;11.566;2023-05-10T04:44:34;1.15;;;0.60;;
63201;SDS011;49296;48.188;11.566;2023-05-10T04:47:01;0.70;;;0.60;;
63201;SDS011;49296;48.188;11.566;2023-05-10T04:49:28;1.75;;;0.50;;
63201;SDS011;49296;48.188;11.566;2023-05-10T04:51:55;1.65;;;0.70;;
63201;SDS011;49296;48.188;11.566;2023-05-10T04:54:23;0.85;;;0.47;;
63201;SDS011;49296;48.188;11.566;2023-05-10T04:56:50;1.20;;;0.57;;
63201;SDS011;49296;48.188;11.566;2023-05-10T04:59:16;0.80;;;0.70;;
63201;SDS011;49296;48.188;11.566;2023-05-10T05:01:43;1.00;;;0.50;;
63201;SDS011;49296;48.188;11.566;2023-05-10T05:04:09;2.70;;;0.57;;
63201;SDS011;49296;48.188;11.566;2023-05-10T05:06:36;2.22;;;0.60;;
63201;SDS011;49296;48.188;11.566;2023-05-10T05:09:03;2.33;;;0.80;;
63201;SDS011;49296;48.188;11.566;2023-05-10T05:11:31;1.58;;;0.90;;
63201;SDS011;49296;48.188;11.566;2023-05-10T05:13:57;0.50;;;0.40;;
63201;SDS011;49296;48.188;11.566;2023-05-10T05:16:24;0.88;;;0.40;;
63201;SDS011;49296;48.188;11.566;2023-05-10T05:18:51;1.10;;;0.50;;
63201;SDS011;49296;48.188;11.566;2023-05-10T05:21:19;1.02;;;0.60;;
63201;SDS011;49296;48.188;11.566;2023-05-10T05:23:47;1.90;;;0.60;;
63201;SDS011;49296;48.188;11.566;2023-05-10T05:26:13;1.35;;;0.68;;
63201;SDS011;49296;48.188;11.566;2023-05-10T05:28:42;0.82;;;0.50;;
63201;SDS011;49296;48.188;11.566;2023-05-10T05:31:08;0.70;;;0.50;;
63201;SDS011;49296;48.188;11.566;2023-05-10T05:33:35;3.03;;;0.90;;
63201;SDS011;49296;48.188;11.566;2023-05-10T05:36:03;3.60;;;0.70;;
63201;SDS011;49296;48.188;11.566;2023-05-10T05:38:31;2.90;;;0.80;;
63201;SDS011;49296;48.188;11.566;2023-05-10T05:40:57;2.38;;;0.80;;
63201;SDS011;49296;48.188;11.566;2023-05-10T05:43:24;1.20;;;0.50;;
63201;SDS011;49296;48.188;11.566;2023-05-10T05:45:53;2.28;;;0.77;;
63201;SDS011;49296;48.188;11.566;2023-05-10T05:48:19;1.45;;;0.90;;
63201;SDS011;49296;48.188;11.566;2023-05-10T05:50:46;2.63;;;0.80;;
63201;SDS011;49296;48.188;11.566;2023-05-10T05:53:13;1.40;;;0.80;;
63201;SDS011;49296;48.188;11.566;2023-05-10T05:55:39;2.10;;;0.90;;
63201;SDS011;49296;48.188;11.566;2023-05-10T05:58:07;1.42;;;0.60;;
63201;SDS011;49296;48.188;11.566;2023-05-10T06:00:33;1.92;;;0.90;;
63201;SDS011;49296;48.188;11.566;2023-05-10T06:03:02;1.50;;;0.75;;
63201;SDS011;49296;48.188;11.566;2023-05-10T06:05:29;1.40;;;0.70;;
63201;SDS011;49296;48.188;11.566;2023-05-10T06:07:56;1.92;;;0.95;;
63201;SDS011;49296;48.188;11.566;2023-05-10T06:10:26;3.03;;;1.20;;
63201;SDS011;49296;48.188;11.566;2023-05-10T06:12:53;1.23;;;0.77;;
63201;SDS011;49296;48.188;11.566;2023-05-10T06:15:19;1.33;;;0.60;;
63201;SDS011;49296;48.188;11.566;2023-05-10T06:17:50;1.65;;;0.85;;
63201;SDS011;49296;48.188;11.566;2023-05-10T06:20:19;1.25;;;0.82;;
63201;SDS011;49296;48.188;11.566;2023-05-10T06:22:46;2.08;;;0.80;;
63201;SDS011;49296;48.188;11.566;2023-05-10T06:25:13;1.85;;;0.70;;
63201;SDS011;49296;48.188;11.566;2023-05-10T06:27:43;1.55;;;0.70;;
63201;SDS011;49296;48.188;11.566;2023-05-10T06:30:10;1.88;;;0.90;;
63201;SDS011;49296;48.188;11.566;2023-05-10T06:32:38;1.20;;;0.82;;
63201;SDS011;49296;48.188;11.566;2023-05-10T06:35:05;2.05;;;1.10;;
63201;SDS011;49296;48.188;11.566;2023-05-10T06:37:34;1.65;;;1.08;;
63201;SDS011;49296;48.188;11.566;2023-05-10T06:40:01;3.83;;;1.10;;
63201;SDS011;49296;48.188;11.566;2023-05-10T06:42:28;2.22;;;1.00;;
63201;SDS011;49296;48.188;11.566;2023-05-10T06:44:55;2.00;;;0.90;;
63201;SDS011;49296;48.188;11.566;2023-05-10T06:47:22;3.67;;;1.20;;
63201;SDS011;49296;48.188;11.566;2023-05-10T06:49:49;2.35;;;1.20;;
63201;SDS011;49296;48.188;11.566;2023-05-10T06:52:16;2.42;;;1.00;;
63201;SDS011;49296;48.188;11.566;2023-05-10T06:54:44;1.80;;;0.90;;
63201;SDS011;49296;48.188;11.566;2023-05-10T06:57:11;2.70;;;0.82;;
63201;SDS011;49296;48.188;11.566;2023-05-10T06:59:38;1.70;;;0.90;;
63201;SDS011;49296;48.188;11.566;2023-05-10T07:02:05;2.75;;;0.80;;
63201;SDS011;49296;48.188;11.566;2023-05-10T07:04:32;1.88;;;0.85;;
63201;SDS011;49296;48.188;11.566;2023-05-10T07:06:59;1.95;;;0.90;;
63201;SDS011;49296;48.188;11.566;2023-05-10T07:09:25;1.83;;;0.90;;
63201;SDS011;49296;48.188;11.566;2023-05-10T07:11:54;2.38;;;1.00;;
63201;SDS011;49296;48.188;11.566;2023-05-10T07:14:22;3.55;;;0.93;;
63201;SDS011;49296;48.188;11.566;2023-05-10T07:16:49;1.88;;;0.80;;
63201;SDS011;49296;48.188;11.566;2023-05-10T07:19:16;2.95;;;0.90;;
63201;SDS011;49296;48.188;11.566;2023-05-10T07:21:43;1.40;;;0.85;;
63201;SDS011;49296;48.188;11.566;2023-05-10T07:24:10;2.00;;;1.17;;
63201;SDS011;49296;48.188;11.566;2023-05-10T07:26:42;2.42;;;1.00;;
63201;SDS011;49296;48.188;11.566;2023-05-10T07:29:11;2.22;;;1.00;;
63201;SDS011;49296;48.188;11.566;2023-05-10T07:31:38;1.65;;;1.08;;
63201;SDS011;49296;48.188;11.566;2023-05-10T07:34:07;1.45;;;0.90;;
63201;SDS011;49296;48.188;11.566;2023-05-10T07:36:36;4.57;;;1.10;;
63201;SDS011;49296;48.188;11.566;2023-05-10T07:39:03;1.60;;;1.00;;
63201;SDS011;49296;48.188;11.566;2023-05-10T07:41:32;2.55;;;1.10;;
63201;SDS011;49296;48.188;11.566;2023-05-10T07:43:59;1.75;;;0.88;;
63201;SDS011;49296;48.188;11.566;2023-05-10T07:46:27;1.88;;;1.10;;
63201;SDS011;49296;48.188;11.566;2023-05-10T07:48:54;1.92;;;0.95;;
63201;SDS011;49296;48.188;11.566;2023-05-10T07:51:21;2.13;;;1.00;;
63201;SDS011;49296;48.188;11.566;2023-05-10T07:53:48;3.42;;;1.17;;
63201;SDS011;49296;48.188;11.566;2023-05-10T07:56:22;1.55;;;0.90;;
63201;SDS011;49296;48.188;11.566;2023-05-10T07:58:52;2.00;;;1.10;;
63201;SDS011;49296;48.188;11.566;2023-05-10T08:01:19;1.67;;;0.90;;
63201;SDS011;49296;48.188;11.566;2023-05-10T08:03:47;2.92;;;1.00;;
63201;SDS011;49296;48.188;11.566;2023-05-10T08:06:16;2.40;;;0.90;;
63201;SDS011;49296;48.188;11.566;2023-05-10T08:08:43;2.03;;;1.08;;
63201;SDS011;49296;48.188;11.566;2023-05-10T08:13:41;2.13;;;1.00;;
63201;SDS011;49296;48.188;11.566;2023-05-10T08:16:07;1.45;;;0.90;;
63201;SDS011;49296;48.188;11.566;2023-05-10T08:18:34;2.00;;;1.05;;
63201;SDS011;49296;48.188;11.566;2023-05-10T08:21:02;1.60;;;0.90;;
63201;SDS011;49296;48.188;11.566;2023-05-10T08:23:29;1.85;;;0.80;;
63201;SDS011;49296;48.188;11.566;2023-05-10T08:25:56;1.40;;;0.80;;
63201;SDS011;49296;48.188;11.566;2023-05-10T08:28:24;1.48;;;0.90;;
63201;SDS011;49296;48.188;11.566;2023-05-10T08:30:55;2.33;;;1.00;;
63201;SDS011;49296;48.188;11.566;2023-05-10T08:33:22;4.55;;;0.82;;
63201;SDS011;49296;48.188;11.566;2023-05-10T08:35:50;1.52;;;0.70;;
63201;SDS011;49296;48.188;11.566;2023-05-10T08:38:19;1.20;;;0.70;;
63201;SDS011;49296;48.188;11.566;2023-05-10T08:40:45;2.97;;;0.90;;
63201;SDS011;49296;48.188;11.566;2023-05-10T08:43:16;1.83;;;0.80;;
63201;SDS011;49296;48.188;11.566;2023-05-10T08:45:43;2.67;;;0.80;;
63201;SDS011;49296;48.188;11.566;2023-05-10T08:48:12;1.42;;;0.80;;
63201;SDS011;49296;48.188;11.566;2023-05-10T08:50:40;3.60;;;0.68;;
63201;SDS011;49296;48.188;11.566;2023-05-10T08:53:09;2.67;;;0.80;;
63201;SDS011;49296;48.188;11.566;2023-05-10T08:55:38;1.75;;;0.77;;
63201;SDS011;49296;48.188;11.566;2023-05-10T08:58:07;1.55;;;0.90;;
63201;SDS011;49296;48.188;11.566;2023-05-10T09:00:35;2.45;;;0.90;;
63201;SDS011;49296;48.188;11.566;2023-05-10T09:03:03;2.45;;;0.80;;
63201;SDS011;49296;48.188;11.566;2023-05-10T09:05:31;1.85;;;1.05;;
63201;SDS011;49296;48.188;11.566;2023-05-10T09:07:58;1.15;;;0.80;;
63201;SDS011;49296;48.188;11.566;2023-05-10T09:10:25;1.33;;;0.80;;
63201;SDS011;49296;48.188;11.566;2023-05-10T09:12:55;2.03;;;0.80;;
63201;SDS011;49296;48.188;11.566;2023-05-10T09:15:23;2.03;;;0.80;;
63201;SDS011;49296;48.188;11.566;2023-05-10T09:17:50;1.45;;;0.90;;
63201;SDS011;49296;48.188;11.566;2023-05-10T09:20:16;1.90;;;0.95;;
63201;SDS011;49296;48.188;11.566;2023-05-10T09:22:43;1.95;;;0.80;;
63201;SDS011;49296;48.188;11.566;2023-05-10T09:25:11;1.92;;;0.88;;
63201;SDS011;49296;48.188;11.566;2023-05-10T09:27:39;2.17;;;0.80;;
63201;SDS011;49296;48.188;11.566;2023-05-10T09:30:09;1.98;;;0.82;;
63201;SDS011;49296;48.188;11.566;2023-05-10T09:32:36;3.40;;;1.10;;
63201;SDS011;49296;48.188;11.566;2023-05-10T09:35:07;1.58;;;0.90;;
63201;SDS011;49296;48.188;11.566;2023-05-10T09:37:35;1.65;;;0.82;;
63201;SDS011;49296;48.188;11.566;2023-05-10T09:40:04;1.98;;;0.90;;
63201;SDS011;49296;48.188;11.566;2023-05-10T09:42:32;2.75;;;0.90;;
63201;SDS011;49296;48.188;11.566;2023-05-10T09:45:01;1.88;;;0.90;;
63201;SDS011;49296;48.188;11.566;2023-05-10T09:47:31;1.98;;;1.00;;
63201;SDS011;49296;48.188;11.566;2023-05-10T09:49:58;1.63;;;0.90;;
63201;SDS011;49296;48.188;11.566;2023-05-10T09:52:28;2.28;;;0.80;;
63201;SDS011;49296;48.188;11.566;2023-05-10T09:54:55;1.65;;;1.05;;
63201;SDS011;49296;48.188;11.566;2023-05-10T09:57:23;2.88;;;1.00;;
63201;SDS011;49296;48.188;11.566;2023-05-10T09:59:50;1.83;;;1.00;;
63201;SDS011;49296;48.188;11.566;2023-05-10T10:02:19;1.58;;;0.93;;
63201;SDS011;49296;48.188;11.566;2023-05-10T10:04:49;2.35;;;0.80;;
63201;SDS011;49296;48.188;11.566;2023-05-10T10:07:19;3.15;;;0.90;;
63201;SDS011;49296;48.188;11.566;2023-05-10T10:09:49;1.33;;;0.70;;
63201;SDS011;49296;48.188;11.566;2023-05-10T10:12:16;2.30;;;0.85;;
63201;SDS011;49296;48.188;11.566;2023-05-10T10:14:44;1.95;;;0.80;;
63201;SDS011;49296;48.188;11.566;2023-05-10T10:17:13;2.22;;;0.85;;
63201;SDS011;49296;48.188;11.566;2023-05-10T10:19:40;0.98;;;0.65;;
63201;SDS011;49296;48.188;11.566;2023-05-10T10:22:09;1.17;;;0.60;;
63201;SDS011;49296;48.188;11.566;2023-05-10T10:24:37;1.90;;;1.00;;
63201;SDS011;49296;48.188;11.566;2023-05-10T10:27:11;2.90;;;0.90;;
63201;SDS011;49296;48.188;11.566;2023-05-10T10:29:47;2.28;;;0.80;;
63201;SDS011;49296;48.188;11.566;2023-05-10T10:32:25;2.30;;;0.70;;
63201;SDS011;49296;48.188;11.566;2023-05-10T10:34:58;1.42;;;0.75;;
63201;SDS011;49296;48.188;11.566;2023-05-10T10:40:25;2.90;;;1.10;;
63201;SDS011;49296;48.188;11.566;2023-05-10T10:42:53;4.57;;;1.23;;
63201;SDS011;49296;48.188;11.566;2023-05-10T10:45:20;3.15;;;1.15;;
63201;SDS011;49296;48.188;11.566;2023-05-10T10:47:48;5.80;;;2.40;;
63201;SDS011;49296;48.188;11.566;2023-05-10T10:50:19;3.95;;;1.20;;
63201;SDS011;49296;48.188;11.566;2023-05-10T10:52:47;4.45;;;1.63;;
63201;SDS011;49296;48.188;11.566;2023-05-10T10:55:18;4.85;;;1.63;;
63201;SDS011;49296;48.188;11.566;2023-05-10T10:57:48;3.60;;;1.83;;
63201;SDS011;49296;48.188;11.566;2023-05-10T11:00:25;6.15;;;2.88;;
63201;SDS011;49296;48.188;11.566;2023-05-10T11:02:55;5.35;;;2.25;;
63201;SDS011;49296;48.188;11.566;2023-05-10T11:05:34;3.60;;;1.20;;
63201;SDS011;49296;48.188;11.566;2023-05-10T11:08:08;3.10;;;1.08;;
63201;SDS011;49296;48.188;11.566;2023-05-10T11:10:37;2.10;;;1.00;;
63201;SDS011;49296;48.188;11.566;2023-05-10T11:13:05;1.73;;;1.00;;
63201;SDS011;49296;48.188;11.566;2023-05-10T11:15:34;1.77;;;0.85;;
63201;SDS011;49296;48.188;11.566;2023-05-10T11:18:16;1.98;;;0.80;;
63201;SDS011;49296;48.188;11.566;2023-05-10T11:20:43;3.83;;;1.00;;
63201;SDS011;49296;48.188;11.566;2023-05-10T11:23:17;2.15;;;0.82;;
63201;SDS011;49296;48.188;11.566;2023-05-10T11:25:45;2.95;;;0.82;;
63201;SDS011;49296;48.188;11.566;2023-05-10T11:28:12;4.80;;;1.73;;
63201;SDS011;49296;48.188;11.566;2023-05-10T11:30:39;2.83;;;1.20;;
63201;SDS011;49296;48.188;11.566;2023-05-10T11:33:07;3.45;;;1.17;;
63201;SDS011;49296;48.188;11.566;2023-05-10T11:35:37;2.80;;;1.40;;
63201;SDS011;49296;48.188;11.566;2023-05-10T11:38:05;4.85;;;1.58;;
63201;SDS011;49296;48.188;11.566;2023-05-10T11:40:34;3.35;;;1.80;;
63201;SDS011;49296;48.188;11.566;2023-05-10T11:43:01;3.05;;;1.50;;
63201;SDS011;49296;48.188;11.566;2023-05-10T11:45:29;3.22;;;1.73;;
63201;SDS011;49296;48.188;11.566;2023-05-10T11:47:58;3.55;;;1.80;;
63201;SDS011;49296;48.188;11.566;2023-05-10T11:50:26;4.07;;;1.95;;
63201;SDS011;49296;48.188;11.566;2023-05-10T11:52:54;3.63;;;1.85;;
63201;SDS011;49296;48.188;11.566;2023-05-10T11:55:21;3.67;;;1.80;;
63201;SDS011;49296;48.188;11.566;2023-05-10T11:57:52;3.88;;;1.63;;
63201;SDS011;49296;48.188;11.566;2023-05-10T12:00:19;3.70;;;1.50;;
63201;SDS011;49296;48.188;11.566;2023-05-10T12:02:47;5.28;;;1.67;;
63201;SDS011;49296;48.188;11.566;2023-05-10T12:05:15;2.85;;;1.13;;
63201;SDS011;49296;48.188;11.566;2023-05-10T12:07:42;2.42;;;1.08;;
63201;SDS011;49296;48.188;11.566;2023-05-10T12:10:09;3.92;;;1.23;;
63201;SDS011;49296;48.188;11.566;2023-05-10T12:12:39;3.33;;;1.30;;
63201;SDS011;49296;48.188;11.566;2023-05-10T12:15:12;3.25;;;1.25;;
63201;SDS011;49296;48.188;11.566;2023-05-10T12:17:44;4.07;;;1.27;;
63201;SDS011;49296;48.188;11.566;2023-05-10T12:20:20;2.70;;;1.33;;
63201;SDS011;49296;48.188;11.566;2023-05-10T12:22:49;3.72;;;1.52;;
63201;SDS011;49296;48.188;11.566;2023-05-10T12:25:17;3.42;;;1.75;;
63201;SDS011;49296;48.188;11.566;2023-05-10T12:27:48;2.35;;;1.30;;
63201;SDS011;49296;48.188;11.566;2023-05-10T12:30:22;2.60;;;1.58;;
63201;SDS011;49296;48.188;11.566;2023-05-10T12:32:50;3.53;;;1.70;;
63201;SDS011;49296;48.188;11.566;2023-05-10T12:35:17;3.00;;;1.50;;
63201;SDS011;49296;48.188;11.566;2023-05-10T12:37:47;3.13;;;1.63;;
63201;SDS011;49296;48.188;11.566;2023-05-10T12:40:14;3.13;;;2.05;;
63201;SDS011;49296;48.188;11.566;2023-05-10T12:42:40;4.20;;;2.00;;
63201;SDS011;49296;48.188;11.566;2023-05-10T12:45:10;4.82;;;1.80;;
63201;SDS011;49296;48.188;11.566;2023-05-10T12:47:39;3.05;;;1.60;;
63201;SDS011;49296;48.188;11.566;2023-05-10T12:50:06;2.50;;;1.15;;
63201;SDS011;49296;48.188;11.566;2023-05-10T12:52:33;2.15;;;1.00;;
63201;SDS011;49296;48.188;11.566;2023-05-10T12:55:00;1.85;;;1.10;;
63201;SDS011;49296;48.188;11.566;2023-05-10T12:57:28;2.85;;;0.95;;
63201;SDS011;49296;48.188;11.566;2023-05-10T12:59:55;1.88;;;0.73;;
63201;SDS011;49296;48.188;11.566;2023-05-10T13:02:22;1.85;;;0.70;;
63201;SDS011;49296;48.188;11.566;2023-05-10T13:04:51;1.27;;;0.57;;
63201;SDS011;49296;48.188;11.566;2023-05-10T13:08:16;1.95;;;0.88;;
63201;SDS011;49296;48.188;11.566;2023-05-10T13:10:43;1.67;;;0.90;;
63201;SDS011;49296;48.188;11.566;2023-05-10T13:13:10;3.50;;;0.90;;
63201;SDS011;49296;48.188;11.566;2023-05-10T13:15:37;2.00;;;0.80;;
63201;SDS011;49296;48.188;11.566;2023-05-10T13:18:04;2.05;;;0.70;;
63201;SDS011;49296;48.188;11.566;2023-05-10T13:20:31;2.85;;;0.88;;
63201;SDS011;49296;48.188;11.566;2023-05-10T13:22:58;1.20;;;0.60;;
63201;SDS011;49296;48.188;11.566;2023-05-10T13:25:26;2.03;;;0.70;;
63201;SDS011;49296;48.188;11.566;2023-05-10T13:27:52;0.98;;;0.60;;
63201;SDS011;49296;48.188;11.566;2023-05-10T13:30:19;1.35;;;0.70;;
63201;SDS011;49296;48.188;11.566;2023-05-10T13:32:46;2.10;;;0.95;;
63201;SDS011;49296;48.188;11.566;2023-05-10T13:35:13;2.53;;;0.90;;
63201;SDS011;49296;48.188;11.566;2023-05-10T13:37:40;2.10;;;0.93;;
63201;SDS011;49296;48.188;11.566;2023-05-10T13:40:07;1.33;;;0.80;;
63201;SDS011;49296;48.188;11.566;2023-05-10T13:42:36;4.40;;;2.03;;
63201;SDS011;49296;48.188;11.566;2023-05-10T13:45:03;2.05;;;0.90;;
63201;SDS011;49296;48.188;11.566;2023-05-10T13:47:31;3.10;;;1.00;;
63201;SDS011;49296;48.188;11.566;2023-05-10T13:49:57;3.17;;;1.15;;
63201;SDS011;49296;48.188;11.566;2023-05-10T13:52:24;3.17;;;1.10;;
63201;SDS011;49296;48.188;11.566;2023-05-10T13:54:52;2.00;;;1.30;;
63201;SDS011;49296;48.188;11.566;2023-05-10T13:57:20;3.70;;;1.50;;
63201;SDS011;49296;48.188;11.566;2023-05-10T13:59:48;3.85;;;2.25;;
63201;SDS011;49296;48.188;11.566;2023-05-10T14:02:15;4.03;;;2.08;;
63201;SDS011;49296;48.188;11.566;2023-05-10T14:04:42;5.22;;;2.20;;
63201;SDS011;49296;48.188;11.566;2023-05-10T14:07:09;3.28;;;1.98;;
63201;SDS011;49296;48.188;11.566;2023-05-10T14:09:36;3.78;;;1.98;;
63201;SDS011;49296;48.188;11.566;2023-05-10T14:12:03;3.80;;;1.95;;
63201;SDS011;49296;48.188;11.566;2023-05-10T14:14:30;4.53;;;1.88;;
63201;SDS011;49296;48.188;11.566;2023-05-10T14:16:58;4.05;;;2.13;;
63201;SDS011;49296;48.188;11.566;2023-05-10T14:19:25;3.22;;;1.50;;
63201;SDS011;49296;48.188;11.566;2023-05-10T14:21:53;3.45;;;1.80;;
63201;SDS011;49296;48.188;11.566;2023-05-10T14:24:20;3.55;;;1.42;;
63201;SDS011;49296;48.188;11.566;2023-05-10T14:26:46;4.50;;;1.85;;
63201;SDS011;49296;48.188;11.566;2023-05-10T14:29:13;3.78;;;1.50;;
63201;SDS011;49296;48.188;11.566;2023-05-10T14:31:40;3.42;;;1.30;;
63201;SDS011;49296;48.188;11.566;2023-05-10T14:34:08;2.85;;;1.23;;
63201;SDS011;49296;48.188;11.566;2023-05-10T14:36:35;2.78;;;1.20;;
63201;SDS011;49296;48.188;11.566;2023-05-10T14:39:02;2.33;;;1.13;;
63201;SDS011;49296;48.188;11.566;2023-05-10T14:41:29;1.95;;;1.00;;
63201;SDS011;49296;48.188;11.566;2023-05-10T14:43:56;3.08;;;1.38;;
63201;SDS011;49296;48.188;11.566;2023-05-10T14:46:23;2.63;;;1.17;;
63201;SDS011;49296;48.188;11.566;2023-05-10T14:48:50;3.40;;;1.30;;
63201;SDS011;49296;48.188;11.566;2023-05-10T14:51:19;2.38;;;1.08;;